New Journey — H8CV — position and weather

sailwx.info

Track history (hours):
 
Tides and Currents Weather Stations Pressure Air Temp Water Temp Dewpoint Dewpoint Depression Visibility Wind Speed Wind Dir Waves Ship Positions

New Journey

Last reported at 2017-Nov-19 12:03 UTC. Time now 2017-Nov-19 17:47 UTC.
Position N 35°34' E 139°59'.

Length 176 m; draft 10.1 m.

Type: Cargo ship. MMSI: 356548000.

Date/timePositionNaut miles runAvg speedWind from/ knotsBaromVisibWave heightAir tempDewpointWater temp
2017-Nov-19 12:03N 35°34' E 139°59'0 0.2
2017-Nov-19 11:45N 35°34' E 139°59'0 0.1
2017-Nov-19 11:30N 35°34' E 139°59'0 0.1
2017-Nov-19 10:51N 35°34' E 139°59'0 0.1
2017-Nov-19 10:15N 35°34' E 139°59'0 0.1
2017-Nov-19 10:00N 35°34' E 139°59'0 0.0
2017-Nov-19 09:30N 35°34' E 139°59'0 0.0
2017-Nov-19 09:00N 35°34' E 139°59'0 0.0
2017-Nov-19 08:30N 35°34' E 139°59'0 0.0
2017-Nov-19 07:27N 35°34' E 139°59'0 0.0
2017-Nov-19 07:00N 35°34' E 139°59'0 0.0
2017-Nov-19 05:00N 35°34' E 139°59'0 0.0
2017-Nov-19 04:30N 35°34' E 139°59'0 0.0
2017-Nov-19 04:00N 35°34' E 139°59'0 0.1
2017-Nov-19 03:30N 35°34' E 139°59'0 0.1
2017-Nov-19 02:57N 35°34' E 139°59'2 4.3
2017-Nov-19 02:30N 35°33' E 139°57'611.3
2017-Nov-19 02:00N 35°29' E 139°52'611.2
2017-Nov-19 01:30N 35°25' E 139°47'510.9
2017-Nov-19 01:01N 35°20' E 139°44'510.2
2017-Nov-19 00:30N 35°15' E 139°47'510.2
2017-Nov-19 00:00N 35°10' E 139°46'4 7.0
2017-Nov-18 23:30N 35°07' E 139°46'4 7.8
2017-Nov-18 23:00N 35°03' E 139°43'5 9.4
2017-Nov-18 22:30N 34°59' E 139°41'5 9.1
2017-Nov-18 22:00N 34°54' E 139°41'4 6.9
2017-Nov-18 21:28N 34°51' E 139°42'2 4.6
2017-Nov-18 20:57N 34°50' E 139°45'3 5.4
2017-Nov-18 20:27N 34°49' E 139°48'2 4.9
2017-Nov-18 19:58N 34°48' E 139°50'3 5.1
2017-Nov-18 19:22N 34°46' E 139°54'  
Track history (hours):
 
Tides and Currents Weather Stations Pressure Air Temp Water Temp Dewpoint Dewpoint Depression Visibility Wind Speed Wind Dir Waves Ship Positions

New Journey

Last reported at 2017-Nov-19 12:03 UTC. Time now 2017-Nov-19 17:47 UTC.
Position N 35°34' E 139°59'.

Length 176 m; draft 10.1 m.

Type: Cargo ship. MMSI: 356548000.

Date/timePositionNaut miles runAvg speedWind from/ knotsBaromVisibWave heightAir tempDewpointWater temp
2017-Nov-19 12:03N 35°34' E 139°59'0 0.2
2017-Nov-19 11:45N 35°34' E 139°59'0 0.1
2017-Nov-19 11:30N 35°34' E 139°59'0 0.1
2017-Nov-19 10:51N 35°34' E 139°59'0 0.1
2017-Nov-19 10:15N 35°34' E 139°59'0 0.1
2017-Nov-19 10:00N 35°34' E 139°59'0 0.0
2017-Nov-19 09:30N 35°34' E 139°59'0 0.0
2017-Nov-19 09:00N 35°34' E 139°59'0 0.0
2017-Nov-19 08:30N 35°34' E 139°59'0 0.0
2017-Nov-19 07:27N 35°34' E 139°59'0 0.0
2017-Nov-19 07:00N 35°34' E 139°59'0 0.0
2017-Nov-19 05:00N 35°34' E 139°59'0 0.0
2017-Nov-19 04:30N 35°34' E 139°59'0 0.0
2017-Nov-19 04:00N 35°34' E 139°59'0 0.1
2017-Nov-19 03:30N 35°34' E 139°59'0 0.1
2017-Nov-19 02:57N 35°34' E 139°59'2 4.3
2017-Nov-19 02:30N 35°33' E 139°57'611.3
2017-Nov-19 02:00N 35°29' E 139°52'611.2
2017-Nov-19 01:30N 35°25' E 139°47'510.9
2017-Nov-19 01:01N 35°20' E 139°44'510.2
2017-Nov-19 00:30N 35°15' E 139°47'510.2
2017-Nov-19 00:00N 35°10' E 139°46'4 7.0
2017-Nov-18 23:30N 35°07' E 139°46'4 7.8
2017-Nov-18 23:00N 35°03' E 139°43'5 9.4
2017-Nov-18 22:30N 34°59' E 139°41'5 9.1
2017-Nov-18 22:00N 34°54' E 139°41'4 6.9
2017-Nov-18 21:28N 34°51' E 139°42'2 4.6
2017-Nov-18 20:57N 34°50' E 139°45'3 5.4
2017-Nov-18 20:27N 34°49' E 139°48'2 4.9
2017-Nov-18 19:58N 34°48' E 139°50'3 5.1
2017-Nov-18 19:22N 34°46' E 139°54'  

Dump ship's entire track history